Time;durP1;ratioP1;P1;durP2;ratioP2;P2;SDS_P1;SDS_P2;PMS_P1;PMS_P2;Temp;Humidity;BMP_temperature;BMP_pressure;BME280_temperature;BME280_humidity;BME280_pressure;Samples;Min_cycle;Max_cycle;Signal;HPM_P1;HPM_P2
2023/03/08 00:05:18;;;;;;;;;;;;;;;;;;;;;
2023/03/08 00:10:27;;;;;;;15.90;9.40;;;;;;;8.34;49.58;97207.89;223588;182;137198;-69
2023/03/08 00:15:32;;;;;;;14.70;9.30;;;;;;;8.34;49.62;97208.26;223807;182;145459;-66
2023/03/08 00:21:24;;;;;;;13.90;8.70;;;;;;;8.34;49.55;97219.20;223743;183;138892;-70
2023/03/08 00:26:59;;;;;;;15.10;9.10;;;;;;;8.28;49.73;97215.25;223610;183;136410;-66
2023/03/08 00:32:29;;;;;;;13.60;9.00;;;;;;;8.23;49.88;97216.75;223857;182;145278;-70
2023/03/08 00:38:27;;;;;;;14.30;8.60;;;;;;;8.24;50.03;97222.98;223630;182;138623;-72
2023/03/08 00:44:18;;;;;;;14.10;8.40;;;;;;;8.18;50.20;97212.91;223727;182;137369;-70
2023/03/08 00:49:55;;;;;;;13.20;8.50;;;;;;;8.15;50.24;97212.98;223985;181;145023;-69
2023/03/08 00:55:14;;;;;;;15.50;8.30;;;;;;;8.17;50.31;97210.55;223770;183;138874;-71
2023/03/08 01:00:19;;;;;;;12.90;8.40;;;;;;;8.17;50.38;97211.75;223686;181;136803;-71
2023/03/08 01:05:27;;;;;;;14.30;9.00;;;;;;;8.16;50.56;97214.64;223733;182;145329;-70
2023/03/08 01:10:31;;;;;;;13.20;8.70;;;;;;;8.16;50.77;97216.23;223744;182;138471;-70
2023/03/08 01:15:37;;;;;;;16.30;9.40;;;;;;;8.18;50.94;97213.66;223709;182;136125;-69
2023/03/08 01:20:42;;;;;;;13.20;9.20;;;;;;;8.17;51.06;97211.27;223796;182;145249;-68
2023/03/08 01:26:04;;;;;;;16.10;9.60;;;;;;;8.14;51.26;97212.52;223671;183;138885;-69
2023/03/08 02:45:40;;;;;;;17.50;10.80;;;;;;;7.45;51.63;97202.58;219770;192;665406;-66
2023/03/08 02:51:58;;;;;;;16.50;10.80;;;;;;;7.34;51.70;97202.56;223381;187;138225;-69
2023/03/08 02:57:59;;;;;;;14.80;10.70;;;;;;;7.28;51.64;97201.19;223376;187;143557;-67
2023/03/08 03:03:44;;;;;;;16.30;10.60;;;;;;;7.20;51.72;97197.62;223079;185;138381;-68
2023/03/08 03:09:28;;;;;;;18.40;11.60;;;;;;;7.19;51.57;97195.80;223414;186;136335;-69
2023/03/08 04:02:02;;;;;;;12.60;8.90;;;;;;;6.81;51.51;97276.75;221682;193;665685;-69
2023/03/08 04:07:33;;;;;;;13.90;9.70;;;;;;;6.78;51.31;97294.46;223465;186;136231;-66
2023/03/08 04:12:57;;;;;;;14.20;8.60;;;;;;;6.73;51.30;97306.64;223639;183;144463;-71
2023/03/08 04:18:17;;;;;;;15.10;8.80;;;;;;;6.60;51.21;97319.57;223664;184;139168;-67
2023/03/08 04:23:57;;;;;;;15.50;9.20;;;;;;;6.58;51.22;97322.01;223601;184;135859;-70
2023/03/08 04:54:59;;;;;;;14.20;8.20;;;;;;;6.68;50.52;97359.33;222649;192;139160;-68
2023/03/08 05:01:30;;;;;;;12.50;7.90;;;;;;;6.64;50.34;97360.52;223011;191;136170;-69
2023/03/08 05:07:04;;;;;;;15.20;7.90;;;;;;;6.64;50.38;97373.55;223271;186;145756;-66
2023/03/08 05:12:18;;;;;;;14.50;8.10;;;;;;;6.63;50.16;97374.34;223198;187;138886;-68
2023/03/08 05:17:36;;;;;;;14.60;9.50;;;;;;;6.65;50.50;97373.81;223237;186;138080;-69
2023/03/08 05:23:05;;;;;;;13.30;7.40;;;;;;;6.69;50.77;97380.95;223281;185;146417;-65
2023/03/08 05:29:05;;;;;;;15.20;9.20;;;;;;;6.69;50.86;97370.58;223578;185;138599;-66
2023/03/08 05:34:24;;;;;;;8.90;6.60;;;;;;;6.65;50.98;97388.28;223679;184;136614;-65
2023/03/08 05:39:51;;;;;;;15.40;7.30;;;;;;;6.60;50.97;97388.49;223716;184;145934;-64
2023/03/08 05:45:55;;;;;;;13.20;7.10;;;;;;;6.59;50.96;97394.58;223316;184;138514;-65
2023/03/08 05:51:37;;;;;;;13.10;7.00;;;;;;;6.61;50.72;97400.73;223384;184;136210;-65
2023/03/08 05:57:02;;;;;;;47.40;26.60;;;;;;;6.65;50.20;97395.14;223478;185;145820;-71
2023/03/08 06:02:40;;;;;;;18.10;6.40;;;;;;;6.66;49.97;97418.55;223439;186;138157;-72
2023/03/08 06:07:44;;;;;;;13.60;7.00;;;;;;;6.69;49.91;97425.05;223377;184;136238;-68
2023/03/08 06:12:49;;;;;;;14.50;7.60;;;;;;;6.67;49.38;97436.59;223355;184;145701;-68
2023/03/08 06:24:28;;;;;;;13.40;7.50;;;;;;;6.78;49.19;97445.15;223822;182;136051;-65
2023/03/08 06:30:58;;;;;;;43.30;25.60;;;;;;;6.84;49.19;97443.44;223620;182;145438;-64
2023/03/08 06:36:21;;;;;;;12.50;7.30;;;;;;;6.93;49.09;97448.64;221321;182;139783;-66
2023/03/08 06:41:33;;;;;;;16.70;6.90;;;;;;;6.96;48.74;97458.15;223552;182;137134;-65
2023/03/08 06:47:16;;;;;;;10.30;6.30;;;;;;;7.04;48.40;97469.84;223851;183;145579;-64
2023/03/08 06:52:36;;;;;;;18.70;7.10;;;;;;;7.05;48.45;97482.52;223594;183;138981;-63
2023/03/08 06:58:21;;;;;;;11.70;6.20;;;;;;;7.11;48.22;97491.92;223844;183;137136;-66
2023/03/08 07:03:38;;;;;;;10.50;6.20;;;;;;;7.14;48.15;97503.23;223686;184;147131;-66
2023/03/08 07:08:44;;;;;;;11.30;6.50;;;;;;;7.17;48.27;97498.21;223661;182;140496;-65
2023/03/08 07:13:58;;;;;;;14.40;7.00;;;;;;;7.29;48.18;97501.39;223781;182;136446;-67
2023/03/08 07:19:38;;;;;;;9.50;6.70;;;;;;;7.34;47.69;97501.67;223824;183;145402;-65
2023/03/08 07:25:19;;;;;;;12.40;7.40;;;;;;;7.35;47.62;97504.44;223735;183;139246;-65
2023/03/08 07:30:28;;;;;;;12.10;7.30;;;;;;;7.42;47.72;97510.33;223561;182;136670;-67
2023/03/08 07:35:31;;;;;;;9.50;6.30;;;;;;;7.56;47.38;97531.49;223583;182;147219;-67
2023/03/08 07:41:18;;;;;;;;;;;;;;;;;;;;;
2023/03/08 07:46:42;;;;;;;11.00;7.00;;;;;;;7.50;47.38;97512.21;223872;182;136301;-67
2023/03/08 07:52:11;;;;;;;11.90;7.10;;;;;;;7.56;47.17;97507.86;223924;182;145856;-65
2023/03/08 07:57:36;;;;;;;;;;;;;;;;;;;;;
2023/03/08 08:03:17;;;;;;;10.70;6.90;;;;;;;7.79;46.60;97511.55;223785;182;136364;-65
2023/03/08 08:08:34;;;;;;;10.60;7.20;;;;;;;7.86;46.60;97531.58;223883;182;147258;-65
2023/03/08 08:14:25;;;;;;;;;;;;;;;7.96;46.57;97540.36;223891;182;138081;-67
2023/03/08 08:19:21;;;;;;;12.20;7.10;;;;;;;7.93;46.28;97549.23;223915;181;129053;-69
2023/03/08 08:24:29;;;;;;;15.50;7.30;;;;;;;7.82;46.29;97547.91;223790;182;146678;-72
2023/03/08 08:29:49;;;;;;;;;;;;;;;;;;;;;
2023/03/08 08:34:58;;;;;;;12.50;8.00;;;;;;;7.93;46.55;97555.05;223661;183;136245;-72
2023/03/08 08:40:07;;;;;;;11.90;7.60;;;;;;;7.93;46.73;97561.92;223809;183;146749;-67
2023/03/08 08:45:57;;;;;;;11.30;7.10;;;;;;;8.02;46.56;97542.49;223793;182;138351;-67
2023/03/08 08:52:07;;;;;;;14.40;7.40;;;;;;;8.13;46.45;97535.36;223452;185;136937;-70
2023/03/08 08:57:24;;;;;;;10.30;7.00;;;;;;;8.28;45.88;97532.96;223413;185;145640;-73
2023/03/08 09:02:37;;;;;;;13.10;7.50;;;;;;;8.35;45.74;97534.16;223394;185;138896;-72
2023/03/08 09:08:17;;;;;;;10.20;7.20;;;;;;;8.46;45.38;97526.69;223575;185;136845;-68
2023/03/08 09:14:08;;;;;;;10.90;6.90;;;;;;;8.55;44.82;97520.49;223495;186;145933;-68
2023/03/08 09:19:52;;;;;;;11.40;6.60;;;;;;;8.64;44.19;97524.73;223390;185;138886;-65
2023/03/08 09:25:34;;;;;;;11.80;7.00;;;;;;;8.78;43.90;97522.22;223330;184;136264;-64
2023/03/08 09:30:54;;;;;;;9.70;6.60;;;;;;;8.85;43.72;97526.27;223935;183;145160;-67
2023/03/08 09:35:59;;;;;;;11.90;7.10;;;;;;;9.03;43.61;97514.36;223757;183;140429;-66
2023/03/08 09:41:38;;;;;;;9.50;6.00;;;;;;;9.20;43.11;97508.02;223756;182;136368;-67
2023/03/08 09:47:23;;;;;;;9.90;6.70;;;;;;;9.35;42.71;97516.70;223688;182;145830;-66
2023/03/08 09:52:37;;;;;;;10.60;6.40;;;;;;;9.46;41.76;97528.76;223568;182;138830;-66
2023/03/08 10:02:03;;;;;;;9.70;6.40;;;;;;;9.61;41.68;97530.91;221021;193;666288;-70
2023/03/08 10:07:22;;;;;;;9.70;6.90;;;;;;;9.64;41.30;97526.33;223114;187;136695;-71
2023/03/08 10:12:37;;;;;;;9.60;6.70;;;;;;;9.60;41.05;97519.81;223154;187;144663;-71
2023/03/08 10:17:43;;;;;;;12.70;6.00;;;;;;;9.46;40.99;97511.21;223163;187;138431;-71
2023/03/08 10:22:55;;;;;;;8.20;5.40;;;;;;;9.30;41.19;97518.58;223153;187;135867;-72
2023/03/08 10:28:02;;;;;;;10.70;6.20;;;;;;;9.18;41.34;97517.23;223172;187;143451;-72
2023/03/08 10:33:11;;;;;;;7.70;6.20;;;;;;;9.10;41.62;97522.27;223345;185;138449;-71
2023/03/08 10:38:16;;;;;;;7.90;6.00;;;;;;;9.13;41.52;97517.40;222758;183;139008;-72
2023/03/08 10:43:44;;;;;;;8.80;6.40;;;;;;;9.34;41.71;97504.59;223583;183;143817;-72
2023/03/08 10:48:49;;;;;;;10.90;6.10;;;;;;;9.61;41.36;97495.14;223515;184;139695;-73
2023/03/08 10:54:03;;;;;;;11.30;6.00;;;;;;;9.86;40.63;97497.64;223510;184;136975;-75
2023/03/08 10:59:19;;;;;;;10.90;7.00;;;;;;;9.80;40.24;97496.55;223516;182;145875;-73
2023/03/08 11:04:25;;;;;;;11.90;5.30;;;;;;;9.89;39.94;97491.85;223513;183;138707;-72
2023/03/08 11:09:35;;;;;;;12.00;6.10;;;;;;;10.02;39.37;97480.16;222759;183;136406;-70
2023/03/08 11:14:40;;;;;;;8.50;5.50;;;;;;;10.26;39.57;97475.45;223560;183;145723;-70
2023/03/08 11:20:11;;;;;;;9.70;5.30;;;;;;;10.36;38.52;97480.81;223504;183;139813;-70
2023/03/08 11:25:24;;;;;;;8.30;5.40;;;;;;;10.38;38.29;97471.20;223459;183;136824;-69
2023/03/08 11:30:52;;;;;;;8.70;5.70;;;;;;;10.38;37.94;97467.54;223356;182;145625;-73
2023/03/08 11:36:09;;;;;;;6.50;5.10;;;;;;;10.32;38.08;97465.75;222329;183;139024;-70
2023/03/08 11:41:15;;;;;;;6.20;5.00;;;;;;;10.26;38.07;97456.02;223611;183;137352;-70
2023/03/08 11:46:18;;;;;;;11.60;5.80;;;;;;;10.30;38.40;97455.27;223566;183;146856;-70
2023/03/08 11:51:40;;;;;;;10.10;5.10;;;;;;;10.35;38.30;97455.71;223616;182;138862;-71
2023/03/08 11:56:49;;;;;;;8.20;5.80;;;;;;;10.36;37.96;97452.11;223532;183;136901;-70
2023/03/08 12:02:02;;;;;;;7.80;5.50;;;;;;;10.31;37.88;97447.09;223567;183;146001;-70
2023/03/08 12:07:14;;;;;;;9.30;5.10;;;;;;;10.22;38.23;97447.09;223570;183;138811;-72
2023/03/08 12:12:27;;;;;;;8.50;5.00;;;;;;;10.14;38.20;97446.66;223564;182;140518;-71
2023/03/08 12:17:35;;;;;;;8.30;5.50;;;;;;;10.18;38.28;97444.21;223484;183;145634;-72
2023/03/08 12:22:42;;;;;;;13.10;6.10;;;;;;;10.20;38.28;97448.11;223445;183;139375;-71
2023/03/08 12:27:52;;;;;;;9.00;5.60;;;;;;;10.24;38.57;97448.16;223707;183;137922;-71
2023/03/08 12:32:57;;;;;;;9.30;6.00;;;;;;;10.26;38.49;97438.07;223558;183;145915;-72
2023/03/08 12:38:31;;;;;;;8.90;5.70;;;;;;;10.31;38.74;97420.08;223534;183;140431;-72
2023/03/08 12:43:36;;;;;;;12.80;5.70;;;;;;;10.46;38.57;97414.91;223512;183;140049;-72
2023/03/08 12:48:45;;;;;;;9.60;5.50;;;;;;;10.58;38.59;97409.27;223475;183;145262;-71
2023/03/08 12:53:49;;;;;;;7.90;5.40;;;;;;;10.73;38.04;97403.25;223595;183;139577;-71
2023/03/08 12:58:56;;;;;;;9.60;5.50;;;;;;;10.94;37.88;97395.33;223524;183;140623;-72
2023/03/08 13:04:06;;;;;;;12.40;6.10;;;;;;;11.25;37.74;97386.36;223658;183;148120;-71
2023/03/08 13:09:32;;;;;;;8.30;5.40;;;;;;;11.44;36.92;97383.91;223063;183;139343;-71
2023/03/08 13:21:30;;;;;;;8.60;5.60;;;;;;;11.51;35.96;97382.20;222736;205;146385;-71
2023/03/08 13:26:48;;;;;;;7.70;5.30;;;;;;;11.54;36.30;97372.33;222869;183;138618;-72
2023/03/08 13:31:54;;;;;;;9.00;5.10;;;;;;;11.69;36.17;97366.35;223510;182;137461;-71
2023/03/08 13:36:58;;;;;;;12.20;5.40;;;;;;;11.68;35.77;97356.29;223373;182;145826;-71
2023/03/08 13:42:07;;;;;;;8.90;4.90;;;;;;;11.71;35.69;97349.62;223404;193;139548;-71
2023/03/08 13:47:29;;;;;;;7.70;5.40;;;;;;;11.57;35.78;97349.50;223316;183;136852;-72
2023/03/08 13:52:37;;;;;;;7.30;4.80;;;;;;;11.51;35.95;97340.27;223470;182;146168;-72
2023/03/08 13:57:41;;;;;;;53.70;33.30;;;;;;;11.58;36.18;97330.87;223174;183;139443;-73
2023/03/08 14:02:46;;;;;;;9.80;5.20;;;;;;;11.65;36.16;97322.83;223474;193;136996;-73
2023/03/08 14:08:06;;;;;;;8.90;5.70;;;;;;;11.72;35.98;97312.69;223447;183;145639;-72
2023/03/08 14:13:23;;;;;;;9.40;5.20;;;;;;;11.71;35.72;97307.52;223430;186;138899;-73
2023/03/08 14:18:32;;;;;;;8.30;5.20;;;;;;;11.74;35.32;97303.45;223544;182;136560;-71
2023/03/08 14:23:44;;;;;;;7.80;5.40;;;;;;;11.73;35.00;97294.90;223671;182;145812;-72
2023/03/08 14:28:47;;;;;;;9.00;5.20;;;;;;;11.69;35.16;97289.21;223367;182;138329;-72
2023/03/08 14:34:20;;;;;;;9.10;5.40;;;;;;;11.61;35.15;97279.81;223760;183;136843;-73
2023/03/08 14:39:29;;;;;;;10.10;4.70;;;;;;;11.51;35.40;97266.89;223718;183;145184;-73
2023/03/08 14:44:33;;;;;;;6.90;5.00;;;;;;;11.47;35.65;97261.13;223637;184;138716;-73
2023/03/08 14:49:37;;;;;;;9.10;5.10;;;;;;;11.43;35.68;97252.55;223649;182;136464;-73
2023/03/08 14:54:41;;;;;;;7.10;5.00;;;;;;;11.38;35.65;97247.19;223686;182;145888;-72
2023/03/08 14:59:45;;;;;;;7.20;5.30;;;;;;;11.34;35.76;97236.17;223565;182;139665;-72
2023/03/08 15:04:49;;;;;;;7.90;5.60;;;;;;;11.25;36.24;97228.67;223589;183;136988;-72
2023/03/08 15:09:53;;;;;;;6.80;5.20;;;;;;;11.25;36.24;97220.14;223719;183;145359;-72
2023/03/08 15:14:56;;;;;;;9.00;5.30;;;;;;;11.20;36.22;97215.32;223696;182;139074;-72
2023/03/08 15:20:00;;;;;;;8.70;5.00;;;;;;;11.17;36.36;97213.67;223637;183;137190;-72
2023/03/08 15:25:12;;;;;;;11.60;5.50;;;;;;;11.16;36.66;97215.08;223637;183;145783;-72
2023/03/08 15:30:22;;;;;;;12.10;5.20;;;;;;;11.16;36.65;97208.98;223603;183;138678;-72
2023/03/08 15:35:25;;;;;;;7.70;4.30;;;;;;;11.03;36.06;97218.32;223627;182;136927;-72
2023/03/08 15:40:32;;;;;;;8.00;4.20;;;;;;;10.89;36.78;97226.36;223659;182;145551;-72
2023/03/08 15:45:35;;;;;;;;;;;;;;;10.67;38.81;97225.41;223677;183;139026;-72
2023/03/08 15:50:39;;;;;;;8.40;4.30;;;;;;;10.39;39.59;97228.48;223751;183;129406;-72
2023/03/08 15:55:43;;;;;;;5.80;4.40;;;;;;;10.21;40.58;97230.25;223700;182;145493;-71
2023/03/08 16:00:47;;;;;;;6.60;4.40;;;;;;;10.10;40.98;97222.70;223618;183;139314;-71
2023/03/08 16:05:54;;;;;;;6.00;4.50;;;;;;;9.95;41.67;97224.17;223674;182;137154;-72
2023/03/08 16:11:02;;;;;;;7.70;4.00;;;;;;;9.87;42.48;97219.48;223544;183;148295;-72
2023/03/08 16:16:07;;;;;;;5.80;3.80;;;;;;;9.80;43.11;97227.30;223703;183;138909;-73
2023/03/08 16:21:11;;;;;;;6.10;3.70;;;;;;;9.74;43.61;97232.52;223687;182;136727;-72
2023/03/08 16:26:15;;;;;;;8.60;4.20;;;;;;;9.60;44.93;97237.92;223592;183;145129;-73
2023/03/08 16:31:21;;;;;;;6.00;3.70;;;;;;;9.51;45.79;97234.67;223545;183;138576;-71
2023/03/08 16:36:24;;;;;;;9.20;4.60;;;;;;;9.45;46.48;97236.61;223602;182;136655;-73
2023/03/08 16:41:28;;;;;;;6.50;4.30;;;;;;;9.42;47.22;97235.02;223631;182;146522;-74
2023/03/08 16:46:32;;;;;;;6.50;4.30;;;;;;;9.37;47.94;97234.67;223596;182;138819;-72
2023/03/08 16:51:36;;;;;;;11.80;4.90;;;;;;;9.26;48.96;97236.83;223709;182;136904;-72
2023/03/08 16:56:42;;;;;;;8.40;5.40;;;;;;;9.16;50.28;97239.95;223633;182;146123;-70
2023/03/08 17:01:46;;;;;;;8.20;5.40;;;;;;;9.07;50.72;97245.19;223621;182;139085;-71
2023/03/08 17:06:49;;;;;;;7.60;5.30;;;;;;;9.01;51.69;97245.79;223602;182;136288;-71
2023/03/08 17:11:53;;;;;;;8.70;5.60;;;;;;;8.96;52.59;97244.48;223664;183;146040;-71
2023/03/08 17:16:56;;;;;;;10.10;5.90;;;;;;;8.92;53.48;97246.44;223633;182;138389;-70
2023/03/08 17:22:02;;;;;;;10.70;6.40;;;;;;;8.87;54.51;97245.41;223831;183;137202;-72
2023/03/08 17:27:05;;;;;;;12.40;6.00;;;;;;;8.83;54.88;97243.27;223652;182;146588;-72
2023/03/08 17:32:09;;;;;;;11.30;6.10;;;;;;;8.73;55.48;97237.52;223682;183;138385;-70
2023/03/08 17:37:14;;;;;;;11.40;6.40;;;;;;;8.67;56.21;97231.17;223685;182;136165;-71
2023/03/08 17:42:18;;;;;;;7.40;4.80;;;;;;;8.61;57.09;97229.04;223678;182;146285;-72
2023/03/08 17:47:21;;;;;;;9.90;6.60;;;;;;;8.53;58.24;97220.14;223737;183;139198;-69
2023/03/08 17:52:25;;;;;;;64.80;40.40;;;;;;;8.49;59.38;97210.02;223582;182;136232;-70
2023/03/08 17:57:28;;;;;;;20.50;12.90;;;;;;;8.51;59.71;97205.13;223616;183;146513;-71
2023/03/08 18:02:33;;;;;;;9.20;7.10;;;;;;;8.51;59.76;97194.84;223455;182;139187;-69
2023/03/08 18:07:37;;;;;;;11.40;7.10;;;;;;;8.46;60.88;97185.95;223524;183;136766;-69
2023/03/08 18:12:43;;;;;;;9.10;6.30;;;;;;;8.48;60.97;97178.30;223294;182;146002;-69
2023/03/08 18:17:47;;;;;;;10.00;6.80;;;;;;;8.50;61.25;97170.54;223387;184;139200;-72
2023/03/08 18:22:51;;;;;;;11.40;6.90;;;;;;;8.48;61.29;97166.85;223465;186;136538;-76
2023/03/08 18:27:55;;;;;;;9.90;7.30;;;;;;;8.40;62.01;97164.19;223450;194;145268;-71
2023/03/08 18:32:58;;;;;;;11.90;7.20;;;;;;;8.36;62.44;97153.86;223371;183;138753;-71
2023/03/08 18:38:02;;;;;;;10.60;7.40;;;;;;;8.30;62.82;97139.66;223357;183;137160;-71
2023/03/08 18:43:06;;;;;;;15.60;7.40;;;;;;;8.24;63.32;97129.77;223348;183;147255;-68
2023/03/08 18:48:09;;;;;;;10.10;7.20;;;;;;;8.17;63.65;97126.41;223303;183;139241;-70
2023/03/08 18:53:14;;;;;;;11.30;7.20;;;;;;;8.12;64.09;97112.76;223392;183;136854;-70
2023/03/08 18:58:17;;;;;;;11.00;7.40;;;;;;;8.14;64.56;97103.93;223411;182;148462;-70
2023/03/08 19:03:20;;;;;;;11.70;7.10;;;;;;;8.18;64.51;97093.34;223422;216;138347;-73
2023/03/08 19:08:27;;;;;;;13.60;7.70;;;;;;;8.22;64.65;97080.27;223585;186;136531;-72
2023/03/08 19:13:31;;;;;;;10.70;7.30;;;;;;;8.21;64.50;97072.94;223449;183;148054;-71
2023/03/08 19:18:34;;;;;;;10.50;7.90;;;;;;;8.18;64.64;97064.19;223385;182;139209;-73
2023/03/08 19:23:37;;;;;;;10.90;8.00;;;;;;;8.19;64.29;97058.27;223709;182;136592;-72
2023/03/08 19:28:40;;;;;;;12.00;7.80;;;;;;;8.23;63.62;97051.39;223620;183;146964;-72
2023/03/08 19:33:48;;;;;;;15.30;8.40;;;;;;;8.20;63.45;97049.55;223599;183;139332;-72
2023/03/08 19:38:55;;;;;;;17.70;9.40;;;;;;;8.19;63.52;97039.16;223582;182;138279;-72
2023/03/08 19:43:59;;;;;;;19.00;10.90;;;;;;;8.16;63.34;97043.20;223544;182;146998;-72
2023/03/08 19:49:05;;;;;;;19.10;11.00;;;;;;;8.11;63.33;97038.46;223635;183;138239;-71
2023/03/08 19:54:08;;;;;;;17.20;11.10;;;;;;;8.08;63.89;97025.83;223614;183;140773;-71
2023/03/08 19:59:12;;;;;;;23.80;13.10;;;;;;;8.08;63.97;97017.52;223531;182;147403;-72
2023/03/08 20:04:15;;;;;;;23.00;13.20;;;;;;;8.07;63.69;97009.27;223578;183;138741;-70
2023/03/08 20:09:22;;;;;;;23.50;14.70;;;;;;;8.07;64.03;97009.34;223669;183;136685;-72
2023/03/08 20:14:26;;;;;;;23.80;13.50;;;;;;;8.00;64.17;96999.25;223586;183;146773;-71
2023/03/08 20:19:32;;;;;;;24.60;14.40;;;;;;;8.01;63.99;96992.30;223585;183;138818;-72
2023/03/08 20:24:36;;;;;;;24.60;13.80;;;;;;;8.07;63.88;96978.05;223608;182;137626;-77
2023/03/08 20:29:40;;;;;;;21.00;13.40;;;;;;;8.11;63.98;96976.16;223536;183;147325;-77
2023/03/08 20:34:43;;;;;;;25.40;13.20;;;;;;;8.12;63.88;96969.89;223522;182;139251;-77
2023/03/08 20:39:51;;;;;;;21.00;12.80;;;;;;;8.13;64.03;96966.22;223597;182;137058;-75
2023/03/08 20:44:54;;;;;;;21.70;13.40;;;;;;;8.20;64.16;96954.13;223601;182;147675;-76
2023/03/08 20:49:58;;;;;;;24.20;14.30;;;;;;;8.25;64.27;96952.16;223603;182;138189;-76
2023/03/08 20:55:02;;;;;;;57.60;39.90;;;;;;;8.31;64.11;96939.92;223610;183;136464;-76
2023/03/08 21:00:08;;;;;;;26.00;14.90;;;;;;;8.40;63.85;96936.19;223521;182;149146;-76
2023/03/08 21:05:11;;;;;;;;;;;;;;;8.33;63.47;96926.23;223546;182;138194;-75
2023/03/08 21:10:15;;;;;;;27.00;15.30;;;;;;;8.29;63.15;96926.89;222723;182;132975;-76
2023/03/08 21:15:18;;;;;;;25.40;15.00;;;;;;;8.20;63.74;96922.16;223660;182;147143;-77
2023/03/08 21:20:22;;;;;;;25.70;15.80;;;;;;;8.20;64.21;96916.39;223573;182;139342;-77
2023/03/08 21:25:25;;;;;;;22.50;14.50;;;;;;;8.16;64.40;96916.48;223629;182;137105;-77
2023/03/08 21:30:29;;;;;;;26.00;15.30;;;;;;;8.14;64.66;96905.20;223652;182;148214;-77
2023/03/08 21:35:40;;;;;;;23.60;14.50;;;;;;;8.11;64.82;96896.80;223582;183;138271;-76
2023/03/08 21:40:43;;;;;;;25.60;14.50;;;;;;;8.09;64.79;96890.30;223588;183;137364;-76
2023/03/08 21:45:47;;;;;;;30.80;16.00;;;;;;;8.05;64.84;96882.71;223661;183;147594;-76
2023/03/08 21:50:50;;;;;;;26.20;15.50;;;;;;;8.01;64.80;96886.22;223576;183;139775;-76
2023/03/08 21:55:54;;;;;;;25.10;15.20;;;;;;;8.01;64.64;96885.67;223611;182;137047;-76
2023/03/08 22:00:57;;;;;;;26.00;16.10;;;;;;;7.99;65.01;96882.14;223532;182;147576;-75
2023/03/08 22:06:11;;;;;;;24.50;15.30;;;;;;;7.96;65.22;96877.44;223561;182;138938;-74
2023/03/08 22:11:19;;;;;;;24.70;14.10;;;;;;;8.00;65.26;96876.42;223589;183;138049;-75
2023/03/08 22:16:24;;;;;;;24.30;14.60;;;;;;;8.16;64.69;96871.50;221955;182;147991;-76
2023/03/08 22:21:28;;;;;;;22.30;14.00;;;;;;;8.29;63.50;96868.55;223678;182;138922;-73
2023/03/08 22:26:31;;;;;;;24.40;14.10;;;;;;;8.40;62.83;96861.98;223643;181;137338;-74
2023/03/08 22:31:35;;;;;;;21.80;13.80;;;;;;;8.46;62.29;96857.93;223713;181;146944;-75
2023/03/08 22:36:38;;;;;;;21.30;13.30;;;;;;;8.47;62.02;96861.54;223627;181;138904;-73
2023/03/08 22:41:42;;;;;;;21.30;13.30;;;;;;;8.50;61.75;96860.20;223646;181;136925;-73
2023/03/08 22:46:46;;;;;;;24.80;14.20;;;;;;;8.55;62.36;96861.42;223597;181;147646;-73
2023/03/08 22:51:51;;;;;;;22.90;14.70;;;;;;;8.47;63.26;96864.03;223713;181;139035;-75
2023/03/08 22:56:55;;;;;;;24.80;15.40;;;;;;;8.40;63.71;96864.52;223680;181;137152;-73
2023/03/08 23:01:58;;;;;;;26.20;14.70;;;;;;;8.34;64.30;96866.45;223658;181;147499;-75
2023/03/08 23:07:02;;;;;;;25.90;14.80;;;;;;;8.27;64.67;96863.81;223719;181;142009;-75
2023/03/08 23:12:06;;;;;;;22.80;14.10;;;;;;;8.24;65.18;96863.90;223672;181;138955;-75
2023/03/08 23:17:09;;;;;;;25.60;16.40;;;;;;;8.22;65.65;96863.02;223709;181;147408;-74
2023/03/08 23:22:13;;;;;;;19.60;12.90;;;;;;;8.16;66.04;96860.52;223661;181;139542;-74
2023/03/08 23:27:16;;;;;;;20.70;13.30;;;;;;;8.17;66.44;96864.36;223624;181;138485;-74
2023/03/08 23:32:20;;;;;;;22.80;14.50;;;;;;;8.26;66.66;96858.45;223614;181;147460;-74
2023/03/08 23:37:24;;;;;;;23.70;14.50;;;;;;;8.34;66.68;96858.80;223659;181;140262;-75
2023/03/08 23:42:27;;;;;;;20.40;13.90;;;;;;;8.40;66.67;96850.12;223649;181;137246;-74
2023/03/08 23:47:32;;;;;;;19.50;13.30;;;;;;;8.44;66.70;96850.14;223686;181;147836;-75
2023/03/08 23:52:35;;;;;;;22.30;13.90;;;;;;;8.42;66.86;96850.19;223716;181;139136;-74
2023/03/08 23:57:39;;;;;;;23.20;13.70;;;;;;;8.39;66.99;96851.11;223805;181;137538;-74
